sensor_id;sensor_type;location;lat;lon;timestamp;pressure;altitude;pressure_sealevel;temperature;humidity
19114;BME280;9689;51.052;13.772;2023-03-13T00:03:28;99629.63;;;8.77;71.27
19114;BME280;9689;51.052;13.772;2023-03-13T00:08:29;99632.78;;;8.90;70.64
19114;BME280;9689;51.052;13.772;2023-03-13T00:13:30;99630.31;;;8.84;70.99
19114;BME280;9689;51.052;13.772;2023-03-13T00:18:32;99633.94;;;8.78;71.30
19114;BME280;9689;51.052;13.772;2023-03-13T00:23:34;99617.63;;;8.71;71.33
19114;BME280;9689;51.052;13.772;2023-03-13T00:28:36;99621.00;;;8.75;71.57
19114;BME280;9689;51.052;13.772;2023-03-13T00:33:40;99625.25;;;8.79;70.79
19114;BME280;9689;51.052;13.772;2023-03-13T00:38:42;99625.25;;;8.79;71.07
19114;BME280;9689;51.052;13.772;2023-03-13T00:43:43;99628.75;;;8.76;70.89
19114;BME280;9689;51.052;13.772;2023-03-13T00:48:46;99638.25;;;8.79;70.44
19114;BME280;9689;51.052;13.772;2023-03-13T00:53:47;99630.06;;;8.94;69.96
19114;BME280;9689;51.052;13.772;2023-03-13T00:58:48;99627.59;;;8.90;69.89
19114;BME280;9689;51.052;13.772;2023-03-13T01:03:52;99620.66;;;8.90;69.22
19114;BME280;9689;51.052;13.772;2023-03-13T01:08:54;99623.69;;;9.07;68.85
19114;BME280;9689;51.052;13.772;2023-03-13T01:13:57;99603.78;;;9.06;68.37
19114;BME280;9689;51.052;13.772;2023-03-13T01:19:02;99600.63;;;8.95;68.60
19114;BME280;9689;51.052;13.772;2023-03-13T01:24:05;99592.81;;;8.95;68.52
19114;BME280;9689;51.052;13.772;2023-03-13T01:29:05;99587.72;;;8.91;68.94
19114;BME280;9689;51.052;13.772;2023-03-13T01:34:09;99580.69;;;8.96;67.86
19114;BME280;9689;51.052;13.772;2023-03-13T01:39:10;99579.66;;;9.01;67.81
19114;BME280;9689;51.052;13.772;2023-03-13T01:44:20;99582.06;;;9.09;66.90
19114;BME280;9689;51.052;13.772;2023-03-13T01:49:26;99577.09;;;9.00;67.43
19114;BME280;9689;51.052;13.772;2023-03-13T01:54:47;99567.78;;;8.91;67.80
19114;BME280;9689;51.052;13.772;2023-03-13T01:59:54;99573.97;;;8.86;67.87
19114;BME280;9689;51.052;13.772;2023-03-13T02:04:59;99565.38;;;8.84;67.60
19114;BME280;9689;51.052;13.772;2023-03-13T02:10:01;99553.84;;;8.95;67.04
19114;BME280;9689;51.052;13.772;2023-03-13T02:15:05;99552.28;;;8.88;67.16
19114;BME280;9689;51.052;13.772;2023-03-13T02:20:11;99544.69;;;8.81;67.50
19114;BME280;9689;51.052;13.772;2023-03-13T02:25:18;99535.25;;;8.76;67.79
19114;BME280;9689;51.052;13.772;2023-03-13T02:30:27;99538.75;;;8.75;68.13
19114;BME280;9689;51.052;13.772;2023-03-13T02:35:29;99531.56;;;8.49;69.29
19114;BME280;9689;51.052;13.772;2023-03-13T02:40:35;99527.31;;;8.47;69.57
19114;BME280;9689;51.052;13.772;2023-03-13T02:45:39;99532.59;;;8.44;69.91
19114;BME280;9689;51.052;13.772;2023-03-13T02:50:41;99528.84;;;8.56;69.47
19114;BME280;9689;51.052;13.772;2023-03-13T02:55:42;99534.00;;;8.57;69.40
19114;BME280;9689;51.052;13.772;2023-03-13T03:00:45;99528.34;;;8.75;69.17
19114;BME280;9689;51.052;13.772;2023-03-13T03:05:45;99537.06;;;8.73;69.30
19114;BME280;9689;51.052;13.772;2023-03-13T03:10:46;99534.38;;;8.77;69.08
19114;BME280;9689;51.052;13.772;2023-03-13T03:15:48;99531.53;;;8.87;68.62
19114;BME280;9689;51.052;13.772;2023-03-13T03:20:50;99519.41;;;8.86;68.98
19114;BME280;9689;51.052;13.772;2023-03-13T03:25:50;99514.94;;;8.92;68.51
19114;BME280;9689;51.052;13.772;2023-03-13T03:30:53;99512.81;;;8.74;69.02
19114;BME280;9689;51.052;13.772;2023-03-13T03:35:58;99489.56;;;8.69;69.08
19114;BME280;9689;51.052;13.772;2023-03-13T03:41:02;99483.47;;;8.70;69.07
19114;BME280;9689;51.052;13.772;2023-03-13T03:46:05;99483.47;;;8.70;69.11
19114;BME280;9689;51.052;13.772;2023-03-13T03:51:06;99463.72;;;8.63;69.23
19114;BME280;9689;51.052;13.772;2023-03-13T03:56:11;99466.19;;;8.68;69.41
19114;BME280;9689;51.052;13.772;2023-03-13T04:01:21;99455.28;;;8.55;69.98
19114;BME280;9689;51.052;13.772;2023-03-13T04:06:22;99452.78;;;8.52;70.02
19114;BME280;9689;51.052;13.772;2023-03-13T04:11:23;99442.44;;;8.49;70.08
19114;BME280;9689;51.052;13.772;2023-03-13T04:16:28;99429.41;;;8.52;69.96
19114;BME280;9689;51.052;13.772;2023-03-13T04:21:28;99429.63;;;8.43;70.06
19114;BME280;9689;51.052;13.772;2023-03-13T04:26:38;99418.56;;;8.33;71.11
19114;BME280;9689;51.052;13.772;2023-03-13T04:31:41;99409.31;;;8.23;70.94
19114;BME280;9689;51.052;13.772;2023-03-13T04:37:00;99404.16;;;8.21;71.56
19114;BME280;9689;51.052;13.772;2023-03-13T04:42:06;99386.09;;;8.18;71.56
19114;BME280;9689;51.052;13.772;2023-03-13T04:47:34;99384.56;;;8.10;72.16
19114;BME280;9689;51.052;13.772;2023-03-13T04:52:43;99369.06;;;8.07;72.36
19114;BME280;9689;51.052;13.772;2023-03-13T04:58:03;99370.56;;;8.15;71.77
19114;BME280;9689;51.052;13.772;2023-03-13T05:03:40;99360.09;;;8.20;71.90
19114;BME280;9689;51.052;13.772;2023-03-13T05:08:51;99349.81;;;8.15;72.10
19114;BME280;9689;51.052;13.772;2023-03-13T05:14:03;99342.22;;;8.09;72.84
19114;BME280;9689;51.052;13.772;2023-03-13T05:19:17;99323.28;;;8.04;72.59
19114;BME280;9689;51.052;13.772;2023-03-13T05:24:34;99321.44;;;8.09;72.59
19114;BME280;9689;51.052;13.772;2023-03-13T05:29:55;99305.69;;;8.15;72.29
19114;BME280;9689;51.052;13.772;2023-03-13T05:35:16;99284.59;;;8.29;71.72
19114;BME280;9689;51.052;13.772;2023-03-13T05:40:34;99286.91;;;8.40;71.33
19114;BME280;9689;51.052;13.772;2023-03-13T05:46:10;99277.16;;;8.48;71.02
19114;BME280;9689;51.052;13.772;2023-03-13T05:51:22;99277.34;;;8.42;71.04
19114;BME280;9689;51.052;13.772;2023-03-13T05:56:41;99257.34;;;8.45;71.15
19114;BME280;9689;51.052;13.772;2023-03-13T06:02:06;99249.66;;;8.41;71.38
19114;BME280;9689;51.052;13.772;2023-03-13T06:07:13;99246.66;;;8.56;71.35
19114;BME280;9689;51.052;13.772;2023-03-13T06:12:14;99227.00;;;8.47;71.16
19114;BME280;9689;51.052;13.772;2023-03-13T06:17:16;99234.50;;;8.57;71.30
19114;BME280;9689;51.052;13.772;2023-03-13T06:22:18;99232.88;;;8.54;71.37
19114;BME280;9689;51.052;13.772;2023-03-13T06:27:19;99235.19;;;8.63;71.28
19114;BME280;9689;51.052;13.772;2023-03-13T06:32:20;99217.22;;;8.85;70.28
19114;BME280;9689;51.052;13.772;2023-03-13T06:37:22;99190.81;;;8.99;69.91
19114;BME280;9689;51.052;13.772;2023-03-13T06:42:23;99194.75;;;9.12;69.50
19114;BME280;9689;51.052;13.772;2023-03-13T06:47:25;99184.47;;;9.07;69.35
19114;BME280;9689;51.052;13.772;2023-03-13T06:52:27;99171.47;;;9.07;69.96
19114;BME280;9689;51.052;13.772;2023-03-13T06:57:42;99171.06;;;9.20;69.26
19114;BME280;9689;51.052;13.772;2023-03-13T07:02:42;99160.97;;;9.37;68.58
19114;BME280;9689;51.052;13.772;2023-03-13T07:07:44;99163.22;;;9.48;68.86
19114;BME280;9689;51.052;13.772;2023-03-13T07:12:45;99166.44;;;9.54;67.86
19114;BME280;9689;51.052;13.772;2023-03-13T07:17:48;99165.28;;;9.63;68.19
19114;BME280;9689;51.052;13.772;2023-03-13T07:22:51;99146.72;;;9.74;67.39
19114;BME280;9689;51.052;13.772;2023-03-13T07:32:57;99132.56;;;9.57;68.92
19114;BME280;9689;51.052;13.772;2023-03-13T07:37:59;99116.50;;;9.45;70.06
19114;BME280;9689;51.052;13.772;2023-03-13T07:43:00;99121.06;;;9.13;72.80
19114;BME280;9689;51.052;13.772;2023-03-13T07:48:01;99104.66;;;8.85;75.22
19114;BME280;9689;51.052;13.772;2023-03-13T07:53:03;99087.59;;;8.77;77.75
19114;BME280;9689;51.052;13.772;2023-03-13T07:58:05;99089.06;;;8.85;78.97
19114;BME280;9689;51.052;13.772;2023-03-13T08:03:06;99079.50;;;8.87;80.42
19114;BME280;9689;51.052;13.772;2023-03-13T08:08:09;99085.91;;;9.01;80.54
19114;BME280;9689;51.052;13.772;2023-03-13T08:13:10;99088.56;;;9.00;80.88
19114;BME280;9689;51.052;13.772;2023-03-13T08:18:11;99099.25;;;8.91;81.61
19114;BME280;9689;51.052;13.772;2023-03-13T08:23:13;99106.28;;;8.89;81.60
19114;BME280;9689;51.052;13.772;2023-03-13T08:28:14;99120.53;;;8.75;82.65
19114;BME280;9689;51.052;13.772;2023-03-13T08:33:15;99124.22;;;8.68;83.06
19114;BME280;9689;51.052;13.772;2023-03-13T08:38:17;99124.25;;;8.67;83.61
19114;BME280;9689;51.052;13.772;2023-03-13T08:43:18;99136.34;;;8.69;83.50
19114;BME280;9689;51.052;13.772;2023-03-13T08:48:19;99119.44;;;8.83;82.61
19114;BME280;9689;51.052;13.772;2023-03-13T08:53:21;99128.59;;;8.94;82.51
19114;BME280;9689;51.052;13.772;2023-03-13T08:58:22;99110.97;;;9.04;81.54
19114;BME280;9689;51.052;13.772;2023-03-13T09:03:23;99093.41;;;9.11;80.80
19114;BME280;9689;51.052;13.772;2023-03-13T09:08:25;99077.19;;;9.29;80.13
19114;BME280;9689;51.052;13.772;2023-03-13T09:13:27;99078.91;;;9.30;79.99
19114;BME280;9689;51.052;13.772;2023-03-13T09:18:28;99065.78;;;9.33;80.04
19114;BME280;9689;51.052;13.772;2023-03-13T09:23:30;99071.31;;;9.49;79.27
19114;BME280;9689;51.052;13.772;2023-03-13T09:28:32;99078.53;;;9.64;78.54
19114;BME280;9689;51.052;13.772;2023-03-13T09:33:33;99083.44;;;9.73;79.02
19114;BME280;9689;51.052;13.772;2023-03-13T09:38:35;99084.50;;;9.68;79.05
19114;BME280;9689;51.052;13.772;2023-03-13T09:43:40;99100.22;;;9.65;80.06
19114;BME280;9689;51.052;13.772;2023-03-13T09:48:47;99097.84;;;9.58;81.40
19114;BME280;9689;51.052;13.772;2023-03-13T09:53:52;99078.19;;;9.75;82.16
19114;BME280;9689;51.052;13.772;2023-03-13T09:58:58;99075.34;;;10.04;81.80
19114;BME280;9689;51.052;13.772;2023-03-13T10:04:06;99053.00;;;10.22;81.75
19114;BME280;9689;51.052;13.772;2023-03-13T10:09:16;99047.00;;;10.64;80.70
19114;BME280;9689;51.052;13.772;2023-03-13T10:14:22;99039.50;;;10.98;80.05
19114;BME280;9689;51.052;13.772;2023-03-13T10:19:31;99037.81;;;10.97;78.43
19114;BME280;9689;51.052;13.772;2023-03-13T10:24:38;99032.34;;;11.03;77.81
19114;BME280;9689;51.052;13.772;2023-03-13T10:29:41;99032.19;;;11.27;77.59
19114;BME280;9689;51.052;13.772;2023-03-13T10:34:49;99022.09;;;11.40;77.46
19114;BME280;9689;51.052;13.772;2023-03-13T10:39:52;99017.41;;;11.67;76.32
19114;BME280;9689;51.052;13.772;2023-03-13T10:44:57;99022.81;;;12.01;74.42
19114;BME280;9689;51.052;13.772;2023-03-13T10:49:57;99022.16;;;12.15;73.61
19114;BME280;9689;51.052;13.772;2023-03-13T10:55:01;99013.69;;;12.29;72.00
19114;BME280;9689;51.052;13.772;2023-03-13T11:00:19;99021.47;;;12.48;71.57
19114;BME280;9689;51.052;13.772;2023-03-13T11:05:36;99000.16;;;12.91;70.15
19114;BME280;9689;51.052;13.772;2023-03-13T11:10:52;99010.69;;;13.07;70.02
19114;BME280;9689;51.052;13.772;2023-03-13T11:15:57;99014.69;;;13.14;68.77
19114;BME280;9689;51.052;13.772;2023-03-13T11:21:03;99011.38;;;13.28;67.77
19114;BME280;9689;51.052;13.772;2023-03-13T11:26:22;99021.13;;;13.42;67.54
19114;BME280;9689;51.052;13.772;2023-03-13T11:31:31;99022.03;;;13.58;68.03
19114;BME280;9689;51.052;13.772;2023-03-13T11:36:34;99017.16;;;13.68;67.01
19114;BME280;9689;51.052;13.772;2023-03-13T11:41:50;99009.63;;;13.62;67.26
19114;BME280;9689;51.052;13.772;2023-03-13T11:47:15;99021.94;;;13.60;66.97
19114;BME280;9689;51.052;13.772;2023-03-13T11:52:34;99026.75;;;13.51;66.81
19114;BME280;9689;51.052;13.772;2023-03-13T11:57:45;99009.00;;;13.41;67.62
19114;BME280;9689;51.052;13.772;2023-03-13T12:02:55;99005.13;;;13.48;67.14
19114;BME280;9689;51.052;13.772;2023-03-13T12:08:01;99003.34;;;13.48;67.16
19114;BME280;9689;51.052;13.772;2023-03-13T12:13:10;99000.75;;;13.48;67.30
19114;BME280;9689;51.052;13.772;2023-03-13T12:18:17;98992.81;;;13.50;67.33
19114;BME280;9689;51.052;13.772;2023-03-13T12:23:23;98973.28;;;13.40;68.34
19114;BME280;9689;51.052;13.772;2023-03-13T12:28:34;98954.28;;;13.52;67.42
19114;BME280;9689;51.052;13.772;2023-03-13T12:33:42;98937.38;;;13.91;67.61
19114;BME280;9689;51.052;13.772;2023-03-13T12:38:48;98935.91;;;14.17;65.77
19114;BME280;9689;51.052;13.772;2023-03-13T12:43:53;98914.13;;;14.30;64.93
19114;BME280;9689;51.052;13.772;2023-03-13T12:49:30;98901.69;;;14.50;63.31
19114;BME280;9689;51.052;13.772;2023-03-13T12:54:55;98897.03;;;14.55;63.67
19114;BME280;9689;51.052;13.772;2023-03-13T13:00:01;98899.19;;;15.21;62.20
19114;BME280;9689;51.052;13.772;2023-03-13T13:05:05;98894.38;;;14.99;61.43
19114;BME280;9689;51.052;13.772;2023-03-13T13:10:19;98901.03;;;14.90;61.53
19114;BME280;9689;51.052;13.772;2023-03-13T13:15:24;98903.47;;;15.08;60.96
19114;BME280;9689;51.052;13.772;2023-03-13T13:20:32;98898.69;;;15.14;60.40
19114;BME280;9689;51.052;13.772;2023-03-13T13:25:34;98883.03;;;15.27;60.28
19114;BME280;9689;51.052;13.772;2023-03-13T13:30:36;98874.38;;;15.53;59.64
19114;BME280;9689;51.052;13.772;2023-03-13T13:35:37;98859.13;;;15.87;58.25
19114;BME280;9689;51.052;13.772;2023-03-13T13:40:38;98832.69;;;16.03;58.07
19114;BME280;9689;51.052;13.772;2023-03-13T13:45:56;98825.69;;;16.16;57.51
19114;BME280;9689;51.052;13.772;2023-03-13T13:51:23;98843.78;;;16.21;57.54
19114;BME280;9689;51.052;13.772;2023-03-13T13:56:33;98850.03;;;16.05;57.08
19114;BME280;9689;51.052;13.772;2023-03-13T14:01:38;98860.38;;;15.81;58.25
19114;BME280;9689;51.052;13.772;2023-03-13T14:06:41;98865.91;;;15.77;57.81
19114;BME280;9689;51.052;13.772;2023-03-13T14:11:44;98871.53;;;15.71;58.41
19114;BME280;9689;51.052;13.772;2023-03-13T14:16:48;98870.16;;;15.65;58.66
19114;BME280;9689;51.052;13.772;2023-03-13T14:21:49;98853.63;;;15.77;58.21
19114;BME280;9689;51.052;13.772;2023-03-13T14:26:50;98864.97;;;15.78;58.37
19114;BME280;9689;51.052;13.772;2023-03-13T14:31:54;98840.59;;;15.76;58.16
19114;BME280;9689;51.052;13.772;2023-03-13T14:36:57;98822.19;;;15.76;58.37
19114;BME280;9689;51.052;13.772;2023-03-13T14:42:16;98816.28;;;15.72;58.14
19114;BME280;9689;51.052;13.772;2023-03-13T14:47:22;98811.59;;;15.77;58.40
19114;BME280;9689;51.052;13.772;2023-03-13T14:52:25;98815.19;;;15.89;58.70
19114;BME280;9689;51.052;13.772;2023-03-13T14:57:27;98822.47;;;15.98;57.46
19114;BME280;9689;51.052;13.772;2023-03-13T15:02:30;98810.34;;;16.23;56.66
19114;BME280;9689;51.052;13.772;2023-03-13T15:07:36;98805.91;;;16.10;57.44
19114;BME280;9689;51.052;13.772;2023-03-13T15:12:41;98802.06;;;15.89;58.08
19114;BME280;9689;51.052;13.772;2023-03-13T15:17:44;98792.31;;;15.91;58.32
19114;BME280;9689;51.052;13.772;2023-03-13T15:22:45;98789.13;;;15.86;58.34
19114;BME280;9689;51.052;13.772;2023-03-13T15:27:46;98780.56;;;15.70;59.00
19114;BME280;9689;51.052;13.772;2023-03-13T15:32:48;98765.47;;;15.73;59.40
19114;BME280;9689;51.052;13.772;2023-03-13T15:37:50;98771.13;;;15.67;59.68
19114;BME280;9689;51.052;13.772;2023-03-13T15:42:51;98772.91;;;15.67;59.49
19114;BME280;9689;51.052;13.772;2023-03-13T15:47:53;98771.50;;;15.61;59.37
19114;BME280;9689;51.052;13.772;2023-03-13T15:52:54;98752.47;;;15.58;59.76
19114;BME280;9689;51.052;13.772;2023-03-13T15:57:55;98735.59;;;15.62;59.30
19114;BME280;9689;51.052;13.772;2023-03-13T16:02:57;98724.72;;;15.53;59.55
19114;BME280;9689;51.052;13.772;2023-03-13T16:07:58;98720.50;;;15.65;59.02
19114;BME280;9689;51.052;13.772;2023-03-13T16:12:59;98721.94;;;15.69;58.74
19114;BME280;9689;51.052;13.772;2023-03-13T16:18:03;98704.63;;;15.67;58.93
19114;BME280;9689;51.052;13.772;2023-03-13T16:23:04;98688.38;;;15.60;59.19
19114;BME280;9689;51.052;13.772;2023-03-13T16:28:05;98674.59;;;15.44;59.47
19114;BME280;9689;51.052;13.772;2023-03-13T16:33:08;98672.06;;;15.30;59.33
19114;BME280;9689;51.052;13.772;2023-03-13T16:38:10;98671.75;;;15.07;60.58
19114;BME280;9689;51.052;13.772;2023-03-13T16:43:11;98658.00;;;15.04;60.92
19114;BME280;9689;51.052;13.772;2023-03-13T16:48:15;98657.22;;;15.02;61.12
19114;BME280;9689;51.052;13.772;2023-03-13T16:53:21;98647.66;;;14.88;61.57
19114;BME280;9689;51.052;13.772;2023-03-13T16:58:21;98638.25;;;14.57;62.37
19114;BME280;9689;51.052;13.772;2023-03-13T17:03:24;98630.75;;;14.22;63.58
19114;BME280;9689;51.052;13.772;2023-03-13T17:08:24;98624.78;;;13.92;64.86
19114;BME280;9689;51.052;13.772;2023-03-13T17:13:25;98628.25;;;13.92;65.13
19114;BME280;9689;51.052;13.772;2023-03-13T17:18:27;98631.69;;;13.78;65.57
19114;BME280;9689;51.052;13.772;2023-03-13T17:23:29;98629.81;;;13.66;65.62
19114;BME280;9689;51.052;13.772;2023-03-13T17:28:30;98632.97;;;13.71;65.86
19114;BME280;9689;51.052;13.772;2023-03-13T17:33:32;98632.59;;;13.63;66.49
19114;BME280;9689;51.052;13.772;2023-03-13T17:38:32;98640.03;;;13.41;67.18
19114;BME280;9689;51.052;13.772;2023-03-13T17:43:33;98638.34;;;13.40;67.64
19114;BME280;9689;51.052;13.772;2023-03-13T17:48:35;98629.25;;;13.15;68.38
19114;BME280;9689;51.052;13.772;2023-03-13T17:53:36;98635.75;;;13.08;69.08
19114;BME280;9689;51.052;13.772;2023-03-13T17:58:37;98633.03;;;12.95;69.38
19114;BME280;9689;51.052;13.772;2023-03-13T18:03:39;98618.75;;;12.85;69.68
19114;BME280;9689;51.052;13.772;2023-03-13T18:08:40;98617.16;;;12.83;70.34
19114;BME280;9689;51.052;13.772;2023-03-13T18:13:42;98610.84;;;12.87;69.76
19114;BME280;9689;51.052;13.772;2023-03-13T18:18:44;98600.63;;;12.98;68.59
19114;BME280;9689;51.052;13.772;2023-03-13T18:23:45;98597.66;;;13.04;68.10
19114;BME280;9689;51.052;13.772;2023-03-13T18:28:45;98591.22;;;13.10;67.62
19114;BME280;9689;51.052;13.772;2023-03-13T18:33:48;98591.41;;;13.07;67.64
19114;BME280;9689;51.052;13.772;2023-03-13T18:38:49;98581.78;;;13.07;67.84
19114;BME280;9689;51.052;13.772;2023-03-13T18:43:50;98571.41;;;13.06;67.92
19114;BME280;9689;51.052;13.772;2023-03-13T18:48:53;98561.78;;;13.36;71.02
19114;BME280;9689;51.052;13.772;2023-03-13T18:53:54;98556.69;;;13.19;68.51
19114;BME280;9689;51.052;13.772;2023-03-13T18:58:56;98548.63;;;13.08;68.72
19114;BME280;9689;51.052;13.772;2023-03-13T19:03:59;98542.38;;;13.10;68.72
19114;BME280;9689;51.052;13.772;2023-03-13T19:09:03;98547.94;;;13.20;67.82
19114;BME280;9689;51.052;13.772;2023-03-13T19:14:27;98555.63;;;13.23;67.22
19114;BME280;9689;51.052;13.772;2023-03-13T19:19:29;98553.16;;;13.20;67.79
19114;BME280;9689;51.052;13.772;2023-03-13T19:24:30;98571.63;;;13.17;67.77
19114;BME280;9689;51.052;13.772;2023-03-13T19:29:31;98597.78;;;13.17;68.28
19114;BME280;9689;51.052;13.772;2023-03-13T19:34:38;98677.75;;;13.37;67.36
19114;BME280;9689;51.052;13.772;2023-03-13T19:39:39;98747.50;;;13.22;72.88
19114;BME280;9689;51.052;13.772;2023-03-13T19:44:40;98740.31;;;12.45;77.86
19114;BME280;9689;51.052;13.772;2023-03-13T19:49:42;98735.38;;;12.06;80.14
19114;BME280;9689;51.052;13.772;2023-03-13T19:54:49;98700.84;;;11.83;81.61
19114;BME280;9689;51.052;13.772;2023-03-13T19:59:52;98680.72;;;11.51;84.19
19114;BME280;9689;51.052;13.772;2023-03-13T20:04:56;98657.03;;;11.38;85.32
19114;BME280;9689;51.052;13.772;2023-03-13T20:09:57;98651.84;;;11.37;86.46
19114;BME280;9689;51.052;13.772;2023-03-13T20:14:57;98627.72;;;11.33;86.08
19114;BME280;9689;51.052;13.772;2023-03-13T20:19:59;98630.97;;;11.19;86.74
19114;BME280;9689;51.052;13.772;2023-03-13T20:25:00;98637.66;;;11.08;88.09
19114;BME280;9689;51.052;13.772;2023-03-13T20:30:03;98629.00;;;11.07;87.16
19114;BME280;9689;51.052;13.772;2023-03-13T20:35:07;98603.59;;;10.93;87.05
19114;BME280;9689;51.052;13.772;2023-03-13T20:40:12;98566.63;;;10.85;85.07
19114;BME280;9689;51.052;13.772;2023-03-13T20:45:12;98557.56;;;10.75;85.95
19114;BME280;9689;51.052;13.772;2023-03-13T20:50:15;98539.19;;;10.61;86.48
19114;BME280;9689;51.052;13.772;2023-03-13T20:55:18;98516.50;;;10.63;86.19
19114;BME280;9689;51.052;13.772;2023-03-13T21:00:19;98531.06;;;10.67;86.37
19114;BME280;9689;51.052;13.772;2023-03-13T21:05:21;98522.75;;;10.59;86.71
19114;BME280;9689;51.052;13.772;2023-03-13T21:10:22;98513.28;;;10.58;86.48
19114;BME280;9689;51.052;13.772;2023-03-13T21:15:23;98517.16;;;10.49;87.00
19114;BME280;9689;51.052;13.772;2023-03-13T21:20:25;98524.06;;;10.50;87.81
19114;BME280;9689;51.052;13.772;2023-03-13T21:25:28;98522.47;;;10.65;87.85
19114;BME280;9689;51.052;13.772;2023-03-13T21:30:29;98527.78;;;10.63;87.25
19114;BME280;9689;51.052;13.772;2023-03-13T21:35:31;98510.28;;;10.65;88.26
19114;BME280;9689;51.052;13.772;2023-03-13T21:40:33;98479.41;;;10.58;87.47
19114;BME280;9689;51.052;13.772;2023-03-13T21:45:34;98477.81;;;10.55;87.16
19114;BME280;9689;51.052;13.772;2023-03-13T21:50:36;98474.81;;;10.45;87.87
19114;BME280;9689;51.052;13.772;2023-03-13T21:55:37;98469.91;;;10.39;87.98
19114;BME280;9689;51.052;13.772;2023-03-13T22:00:39;98493.25;;;10.41;88.54
19114;BME280;9689;51.052;13.772;2023-03-13T22:05:42;98490.44;;;10.45;88.45
19114;BME280;9689;51.052;13.772;2023-03-13T22:10:46;98499.53;;;10.37;88.42
19114;BME280;9689;51.052;13.772;2023-03-13T22:15:47;98509.94;;;10.37;88.66
19114;BME280;9689;51.052;13.772;2023-03-13T22:20:50;98534.16;;;10.39;89.48
19114;BME280;9689;51.052;13.772;2023-03-13T22:25:53;98529.50;;;10.45;88.49
19114;BME280;9689;51.052;13.772;2023-03-13T22:30:58;98531.25;;;10.45;88.49
19114;BME280;9689;51.052;13.772;2023-03-13T22:36:01;98540.75;;;10.46;89.02
19114;BME280;9689;51.052;13.772;2023-03-13T22:41:02;98542.72;;;10.41;88.91
19114;BME280;9689;51.052;13.772;2023-03-13T22:46:04;98554.69;;;10.45;89.05
19114;BME280;9689;51.052;13.772;2023-03-13T22:51:08;98575.44;;;10.46;88.79
19114;BME280;9689;51.052;13.772;2023-03-13T22:56:11;98571.59;;;10.36;89.05
19114;BME280;9689;51.052;13.772;2023-03-13T23:01:16;98572.53;;;10.35;89.31
19114;BME280;9689;51.052;13.772;2023-03-13T23:06:20;98565.81;;;10.30;90.02
19114;BME280;9689;51.052;13.772;2023-03-13T23:11:22;98568.44;;;10.30;90.45
19114;BME280;9689;51.052;13.772;2023-03-13T23:16:23;98553.09;;;10.24;90.92
19114;BME280;9689;51.052;13.772;2023-03-13T23:21:25;98552.25;;;10.23;91.02
19114;BME280;9689;51.052;13.772;2023-03-13T23:26:25;98536.75;;;10.20;91.09
19114;BME280;9689;51.052;13.772;2023-03-13T23:31:26;98525.38;;;10.23;91.10
19114;BME280;9689;51.052;13.772;2023-03-13T23:36:28;98491.94;;;10.13;91.49
19114;BME280;9689;51.052;13.772;2023-03-13T23:41:29;98424.19;;;10.15;91.75
19114;BME280;9689;51.052;13.772;2023-03-13T23:46:30;98366.00;;;10.16;91.52
19114;BME280;9689;51.052;13.772;2023-03-13T23:51:32;98355.00;;;10.11;91.48
19114;BME280;9689;51.052;13.772;2023-03-13T23:56:32;98335.78;;;10.13;91.32
